Maple Ridge, SC

10:39 AM EST on December 06, 2016 (GMT -0500)
Goose Creek, SC US | | Change Station

Elev 39 ft 32.99 °N, 80.03 °W | Updated 3 seconds ago

Heavy Rain
Heavy Rain Mist
59.0 °F
Feels Like 59.0 °F
N
0.0
Wind Variable Wind from NNW
Gusts 0.0 mph

Today
High -- | Low -- °F
--% Chance of Precip.
Yesterday
High -- | Low -- °F
Precip. -- in
Pressure 29.83 in
Visibility 2.0 miles
Clouds Few 300 ft
Mostly Cloudy 1000 ft
Overcast 2000 ft
Dew Point 57 °F
Humidity 92%
Rainfall 2.33 in
Snow Depth Not available.
7:09 AM 5:13 PM
Waxing Crescent, 42% visible
SPECI KCHS 061516Z 32006KT 2SM R15/4000VP6000FT +RA BR FEW003 BKN010 OVC020 16/14 A2983 RMK AO2 P0009 T01560144
Pressure 29.83 in
Visibility 2.0 miles
Clouds Few 300 ft
Mostly Cloudy 1000 ft
Overcast 2000 ft
Dew Point 57 °F
Humidity 92%
Rainfall 2.33 in
Snow Depth Not available.
7:09 AM 5:13 PM
Waxing Crescent, 42% visible
SPECI KCHS 061516Z 32006KT 2SM R15/4000VP6000FT +RA BR FEW003 BKN010 OVC020 16/14 A2983 RMK AO2 P0009 T01560144

10-Day Weather Forecast

Almanac

Astronomy

Dec. 06, 2016 Rise Set
Actual Time
Civil Twilight
Nautical Twilight
Astronomical Twilight
Moon
Length of Visible Light
Length of Day
Tomorrow will be .
, % of the Moon is Illuminated

Today's Extremes

State Highs State Lows

Community

WunderPhotos

Upload Photos

1,955,957 photos uploaded!

WunderBlog® & News

Nearby

Air Quality

  Air Quality AQ Index Pollutant
Not available.

Snow Depth

Station Depth Elevation

Earthquake Activity

City Distance Mag. Time & Date
Minimum magnitude displayed is 2.5.

Coastal Water Temperatures

Place Temperature

Stations

Nearby Weather Stations

Station Location Temp. Windchill Dew Point Humidity Wind Precip. Elev Updated Type
                   

Watches & Warnings

There are currently no watches in effect.